McClellandtown, Pennsylvania
Current Conditions -  °F | °C
As of 10:53 AM on Friday 19 Dec 2014 (Local Time) from KMGW Reporting Station
Overcast Overcast  
Wind Chill: 21°   Ceiling: 2600
Heat Index: 29°   Visibility: 10mi
Dew Point: 20°   Wind: 8mph
Humidity: 69%   Direction: 240°WSW
Pressure: 30.23"   Gusts: NA
Location:  39.89°N, 79.87°W
Report Text: KMGW 191553Z 24007KT 10SM SCT016 OVC026 M02/M07 A3023 RMK AO2 SLP251 T10171067
Loading
Personal Weather Stations






























Interactive Weather Map New forecast layout! Learn more

10-Day Weather Forecast

Advertisements
Track Severe Weather on mobile